Airfield :







YOU CAN JOIN US ON...

 
LOGIN :

Register | Disclaimer

   EN    FR    IT 

 









Legend :    VFR   Marginal VFR   IFR   Intensive IFR   Very Intensive IFR
Visi :
Ceiling :
>= 8 km
>= 3000ft
5 to 8 km
1000 to 3000 ft
1500m to 5 km
500 to 1000 ft
800 to 1500m
200 to 500 ft
< 800m
< 200 ft
Symbols :   Thunderstorms  Fog  Heavy snow  Heavy precipitations  Wind > 20 kt






- Airport Elevation : 489 ft


KHUL - Houlton International

CURRENT METAR :
  • 291853Z AUTO 36013G22KT 10SM CLR M08/M16 A2994 RMK AO2 SLP149 T10781156

EXPIRED METARs :
  • 291753Z AUTO 01015G22KT 10SM CLR M09/M17 A2993 RMK AO2 SLP147 T10891167 11089 21150 58001
  • 291653Z AUTO 34016G23KT 10SM FEW031 M09/M17 A2993 RMK AO2 PK WND 34026/1606 SLP147 T10891167

TAF KHUL
Valid from the 29 at 18:00 until the 30 at 18:00 UTC


291815Z 2918/3018 35011G20KT P6SM SCT020
FM301700 32006KT P6SM SKC



MET'MAP, your aeronautical weather chart ! - Copyright ORBIFLY December 2007 - Disclaimer

ORBIFLY MET'MAP TEAM :

Programming & Development : Alexandra Zaïnal
Concept & original design : Baudouin d'Aumeries
Assistance for programming : Marc-Olivier Méhu
Technical & hardware support : Manuel Goepfert

Contact : metmap@orbifly.com




SOURCES & CREDITS :

   NOAA